This is the latest recevied weather packets stored in our database for station/object S50APT-10. If no packets are shown the sender has not sent any weather packets the latest 10 day(s).
| Time | Temp. | Humidity | Pressure | Rain* | Wind** | Luminosity | Snow |
|---|---|---|---|---|---|---|---|
| 1777728515 | 30.56° C | 20% | 1024.1 hPa | - | - | - | - |
| 1777727615 | 30.56° C | 18% | 1024.4 hPa | - | - | - | - |
| 1777726714 | 32.22° C | 18% | 1024.5 hPa | - | - | - | - |
| 1777725813 | 32.22° C | 18% | 1024.6 hPa | - | - | - | - |
| 1777724912 | 32.22° C | 18% | 1024.8 hPa | - | - | - | - |
| 1777724011 | 27.22° C | 22% | 1025 hPa | - | - | - | - |
| 1777723110 | 36.11° C | 15% | 1025.2 hPa | - | - | - | - |
| 1777722210 | 32.22° C | 18% | 1025.3 hPa | - | - | - | - |
| 1777721310 | 29.44° C | 20% | 1025.4 hPa | - | - | - | - |
| 1777720410 | 25° C | 25% | 1025.5 hPa | - | - | - | - |
| 1777719509 | 25° C | 24% | 1025.8 hPa | - | - | - | - |
| 1777718608 | 26.67° C | 22% | 1026 hPa | - | - | - | - |
| 1777717704 | 27.22° C | 22% | 1026.2 hPa | - | - | - | - |
| 1777716803 | 27.22° C | 22% | 1026.3 hPa | - | - | - | - |
| 1777715990 | 26.11° C | 23% | 1026.5 hPa | - | - | - | - |
| 1777715903 | 26.11° C | 23% | 1026.5 hPa | - | - | - | - |
| 1777715003 | 28.33° C | 21% | 1026.6 hPa | - | - | - | - |
| 1777714102 | 31.11° C | 18% | 1026.7 hPa | - | - | - | - |
| 1777713208 | 30° C | 20% | 1026.8 hPa | - | - | - | - |
| 1777712350 | 29.44° C | 21% | 1026.9 hPa | - | - | - | - |
| 1777712308 | 29.44° C | 21% | 1026.9 hPa | - | - | - | - |
| 1777711403 | 30° C | 22% | 1027 hPa | - | - | - | - |
| 1777710494 | 28.33° C | 22% | 1027.1 hPa | - | - | - | - |
| 1777709593 | 26.67° C | 25% | 1027.2 hPa | - | - | - | - |
| 1777708692 | 26.67° C | 23% | 1027.2 hPa | - | - | - | - |
* Rain since midnight (hover to see other rain measurements)
** Current wind speed in m/s (hover to see current wind gust speed)